Time,TemperatureF,DewpointF,PressureIn,WindDirection,WindDirectionDegrees,WindSpeedMPH,WindSpeedGustMPH,Humidity,HourlyPrecipIn,Conditions,Clouds,dailyrainin,SoftwareType,DateUTC
2013-01-13 00:03:00,65.0,62.0,29.65,SSE,150,6.0,17.0,91,0.00,,,1.31,,2013-01-13 05:03:00,
2013-01-13 00:12:00,65.0,62.0,29.65,SSE,150,6.0,17.0,91,0.00,,,1.31,,2013-01-13 05:12:00,
2013-01-13 00:22:00,65.0,63.0,29.65,SSE,157,5.0,14.0,92,0.00,,,1.31,,2013-01-13 05:22:00,
2013-01-13 00:32:00,64.0,62.0,29.62,SE,145,7.0,18.0,92,0.00,,,1.31,,2013-01-13 05:32:00,
2013-01-13 00:42:00,64.0,62.0,29.62,SE,145,7.0,18.0,92,0.00,,,1.31,,2013-01-13 05:42:00,
2013-01-13 00:53:00,64.0,62.0,29.60,SE,145,7.0,16.0,93,0.00,,,1.31,,2013-01-13 05:53:00,
2013-01-13 01:02:00,64.0,62.0,29.63,South,175,6.0,16.0,94,0.10,,,1.41,,2013-01-13 06:02:00,
2013-01-13 01:12:00,63.0,62.0,29.66,WSW,255,6.0,14.0,95,0.18,,,1.49,,2013-01-13 06:12:00,
2013-01-13 01:22:00,63.0,62.0,29.66,WSW,255,6.0,14.0,95,0.18,,,1.49,,2013-01-13 06:22:00,
2013-01-13 01:32:00,55.0,53.0,29.67,West,281,2.0,6.0,94,0.20,,,1.51,,2013-01-13 06:32:00,
2013-01-13 01:42:00,55.0,53.0,29.67,West,281,2.0,6.0,94,0.20,,,1.51,,2013-01-13 06:42:00,
2013-01-13 01:52:00,54.0,53.0,29.68,WNW,303,4.0,8.0,95,0.22,,,1.53,,2013-01-13 06:52:00,
2013-01-13 02:02:00,54.0,53.0,29.71,West,263,1.0,7.0,96,0.14,,,1.55,,2013-01-13 07:02:00,
2013-01-13 02:12:00,54.0,53.0,29.71,West,263,1.0,7.0,96,0.14,,,1.55,,2013-01-13 07:12:00,
2013-01-13 02:22:00,54.0,53.0,29.72,WNW,294,1.0,4.0,96,0.09,,,1.58,,2013-01-13 07:22:00,
2013-01-13 02:32:00,53.0,52.0,29.72,WSW,242,0.0,2.0,96,0.10,,,1.61,,2013-01-13 07:32:00,
2013-01-13 02:42:00,53.0,52.0,29.72,WSW,242,0.0,2.0,96,0.10,,,1.61,,2013-01-13 07:42:00,
2013-01-13 02:52:00,52.0,51.0,29.72,WSW,242,0.0,3.0,96,0.10,,,1.63,,2013-01-13 07:52:00,
2013-01-13 03:02:00,52.0,51.0,29.73,WSW,242,0.0,2.0,96,0.08,,,1.63,,2013-01-13 08:02:00,
2013-01-13 03:12:00,52.0,51.0,29.73,WSW,242,0.0,2.0,96,0.08,,,1.63,,2013-01-13 08:12:00,
2013-01-13 03:22:00,52.0,51.0,29.73,WSW,242,0.0,2.0,96,0.06,,,1.64,,2013-01-13 08:22:00,
2013-01-13 03:32:00,52.0,51.0,29.78,WSW,242,1.0,4.0,97,0.06,,,1.67,,2013-01-13 08:32:00,
2013-01-13 03:42:00,52.0,51.0,29.78,WSW,242,1.0,4.0,97,0.06,,,1.67,,2013-01-13 08:42:00,
2013-01-13 03:53:00,49.0,48.0,29.82,WSW,245,4.0,10.0,95,0.08,,,1.71,,2013-01-13 08:53:00,
2013-01-13 04:02:00,46.0,45.0,29.82,West,267,2.0,8.0,96,0.11,,,1.74,,2013-01-13 09:02:00,
2013-01-13 04:12:00,45.0,44.0,29.80,West,261,1.0,5.0,96,0.13,,,1.77,,2013-01-13 09:12:00,
2013-01-13 04:22:00,45.0,44.0,29.80,West,261,1.0,5.0,96,0.13,,,1.77,,2013-01-13 09:22:00,
2013-01-13 04:32:00,44.0,43.0,29.79,NW,308,1.0,5.0,96,0.13,,,1.80,,2013-01-13 09:32:00,
2013-01-13 04:42:00,44.0,43.0,29.79,NW,308,1.0,5.0,96,0.13,,,1.80,,2013-01-13 09:42:00,
2013-01-13 04:52:00,44.0,43.0,29.81,West,277,1.0,5.0,96,0.12,,,1.83,,2013-01-13 09:52:00,
2013-01-13 05:02:00,43.0,42.0,29.81,WNW,293,1.0,8.0,96,0.11,,,1.85,,2013-01-13 10:02:00,
2013-01-13 05:12:00,43.0,42.0,29.81,WNW,293,1.0,8.0,96,0.11,,,1.85,,2013-01-13 10:12:00,
2013-01-13 05:22:00,42.0,41.0,29.83,NW,309,1.0,6.0,96,0.12,,,1.89,,2013-01-13 10:22:00,
2013-01-13 05:32:00,41.0,40.0,29.79,East,96,2.0,8.0,97,0.10,,,1.90,,2013-01-13 10:32:00,
2013-01-13 05:42:00,41.0,40.0,29.79,East,96,2.0,8.0,97,0.10,,,1.90,,2013-01-13 10:42:00,
2013-01-13 05:52:00,41.0,40.0,29.81,ENE,78,0.0,0.0,97,0.09,,,1.92,,2013-01-13 10:52:00,
2013-01-13 06:02:00,41.0,40.0,29.86,ENE,78,0.0,3.0,97,0.09,,,1.94,,2013-01-13 11:02:00,
2013-01-13 06:12:00,41.0,40.0,29.84,NNW,336,0.0,2.0,97,0.07,,,1.96,,2013-01-13 11:12:00,
2013-01-13 06:22:00,41.0,40.0,29.84,NNW,336,0.0,2.0,97,0.07,,,1.96,,2013-01-13 11:22:00,
2013-01-13 06:32:00,41.0,40.0,29.81,North,354,1.0,6.0,97,0.12,,,2.02,,2013-01-13 11:32:00,
2013-01-13 06:42:00,41.0,40.0,29.81,North,354,1.0,6.0,97,0.12,,,2.02,,2013-01-13 11:42:00,
2013-01-13 06:52:00,41.0,40.0,29.80,East,79,4.0,11.0,97,0.13,,,2.05,,2013-01-13 11:52:00,
2013-01-13 07:03:00,41.0,40.0,29.88,WNW,294,2.0,5.0,97,0.13,,,2.07,,2013-01-13 12:03:00,
2013-01-13 07:12:00,41.0,40.0,29.88,WNW,294,2.0,5.0,97,0.13,,,2.07,,2013-01-13 12:12:00,
2013-01-13 07:22:00,40.0,39.0,29.86,NNW,327,1.0,5.0,97,0.11,,,2.07,,2013-01-13 12:22:00,
2013-01-13 07:32:00,39.0,38.0,29.85,NW,324,0.0,3.0,97,0.05,,,2.07,,2013-01-13 12:32:00,
2013-01-13 07:42:00,39.0,38.0,29.85,NW,324,0.0,3.0,97,0.05,,,2.07,,2013-01-13 12:42:00,
2013-01-13 07:53:00,39.0,38.0,29.84,NE,43,1.0,5.0,97,0.02,,,2.07,,2013-01-13 12:53:00,
2013-01-13 08:02:00,39.0,38.0,29.83,NNW,332,1.0,7.0,97,0.00,,,2.07,,2013-01-13 13:02:00,
2013-01-13 08:12:00,39.0,38.0,29.83,NNW,332,1.0,7.0,97,0.00,,,2.07,,2013-01-13 13:12:00,
2013-01-13 08:22:00,38.0,37.0,29.86,NNW,329,1.0,5.0,97,0.00,,,2.07,,2013-01-13 13:22:00,
2013-01-13 08:32:00,38.0,37.0,29.88,NW,311,1.0,5.0,97,0.00,,,2.07,,2013-01-13 13:32:00,
2013-01-13 08:42:00,38.0,37.0,29.88,NW,311,1.0,5.0,97,0.00,,,2.07,,2013-01-13 13:42:00,
2013-01-13 08:53:00,38.0,37.0,29.84,NNE,28,1.0,9.0,97,0.00,,,2.07,,2013-01-13 13:53:00,
2013-01-13 09:02:00,38.0,37.0,29.90,WNW,298,2.0,7.0,97,0.00,,,2.07,,2013-01-13 14:02:00,
2013-01-13 09:12:00,38.0,37.0,29.90,WNW,298,2.0,7.0,97,0.00,,,2.07,,2013-01-13 14:12:00,
2013-01-13 09:22:00,38.0,37.0,29.91,WNW,302,1.0,5.0,97,0.00,,,2.07,,2013-01-13 14:22:00,
2013-01-13 09:33:00,38.0,37.0,29.90,NW,313,0.0,4.0,97,0.00,,,2.07,,2013-01-13 14:33:00,
2013-01-13 09:43:00,38.0,37.0,29.90,NW,313,0.0,4.0,97,0.00,,,2.07,,2013-01-13 14:43:00,
2013-01-13 09:53:00,38.0,37.0,29.90,NW,318,0.0,4.0,97,0.00,,,2.07,,2013-01-13 14:53:00,
2013-01-13 10:03:00,38.0,37.0,29.91,NNW,330,0.0,3.0,97,0.00,,,2.07,,2013-01-13 15:03:00,
2013-01-13 10:12:00,38.0,37.0,29.91,NNW,330,0.0,3.0,97,0.00,,,2.07,,2013-01-13 15:12:00,
2013-01-13 10:22:00,38.0,37.0,29.91,NNW,331,0.0,5.0,97,0.00,,,2.07,,2013-01-13 15:22:00,
2013-01-13 10:33:00,37.0,36.0,29.90,WNW,297,0.0,3.0,97,0.00,,,2.07,,2013-01-13 15:33:00,
2013-01-13 10:43:00,37.0,36.0,29.90,WNW,297,0.0,3.0,97,0.00,,,2.07,,2013-01-13 15:43:00,
2013-01-13 10:53:00,38.0,37.0,29.90,WNW,299,0.0,3.0,97,0.00,,,2.07,,2013-01-13 15:53:00,
2013-01-13 11:03:00,38.0,37.0,29.91,WNW,299,0.0,3.0,97,0.00,,,2.07,,2013-01-13 16:03:00,
2013-01-13 11:12:00,38.0,37.0,29.91,WNW,299,0.0,3.0,97,0.00,,,2.07,,2013-01-13 16:12:00,
2013-01-13 11:22:00,38.0,37.0,29.91,NW,309,1.0,4.0,97,0.00,,,2.07,,2013-01-13 16:22:00,
2013-01-13 11:33:00,38.0,37.0,29.92,NW,308,1.0,6.0,97,0.00,,,2.07,,2013-01-13 16:33:00,
2013-01-13 11:42:00,38.0,37.0,29.92,NW,308,1.0,6.0,97,0.00,,,2.07,,2013-01-13 16:42:00,
2013-01-13 11:53:00,38.0,37.0,29.92,WNW,302,1.0,4.0,97,0.01,,,2.08,,2013-01-13 16:53:00,
2013-01-13 12:03:00,37.0,36.0,29.91,WNW,297,1.0,5.0,97,0.01,,,2.08,,2013-01-13 17:03:00,
2013-01-13 12:12:00,37.0,36.0,29.91,WNW,297,1.0,5.0,97,0.01,,,2.08,,2013-01-13 17:12:00,
2013-01-13 12:22:00,37.0,36.0,29.91,NW,312,1.0,4.0,97,0.02,,,2.09,,2013-01-13 17:22:00,
2013-01-13 12:33:00,37.0,36.0,29.89,NW,321,0.0,3.0,97,0.02,,,2.09,,2013-01-13 17:33:00,
2013-01-13 12:42:00,37.0,36.0,29.89,NW,321,0.0,3.0,97,0.02,,,2.09,,2013-01-13 17:42:00,
2013-01-13 12:53:00,37.0,36.0,29.85,NW,321,0.0,3.0,97,0.01,,,2.09,,2013-01-13 17:53:00,
2013-01-13 13:03:00,37.0,36.0,29.87,NW,318,0.0,3.0,97,0.04,,,2.12,,2013-01-13 18:03:00,
2013-01-13 13:12:00,37.0,36.0,29.87,NW,318,0.0,3.0,97,0.04,,,2.12,,2013-01-13 18:12:00,
2013-01-13 13:22:00,37.0,36.0,29.84,NE,37,1.0,4.0,97,0.04,,,2.13,,2013-01-13 18:22:00,
2013-01-13 13:33:00,37.0,36.0,29.84,East,88,0.0,7.0,97,0.04,,,2.13,,2013-01-13 18:33:00,
2013-01-13 13:42:00,37.0,36.0,29.84,East,88,0.0,7.0,97,0.04,,,2.13,,2013-01-13 18:42:00,
2013-01-13 13:53:00,37.0,36.0,29.88,East,86,1.0,6.0,97,0.04,,,2.13,,2013-01-13 18:53:00,
2013-01-13 14:02:00,37.0,36.0,29.90,West,267,2.0,6.0,97,0.05,,,2.17,,2013-01-13 19:02:00,
2013-01-13 14:12:00,37.0,36.0,29.90,West,267,2.0,6.0,97,0.05,,,2.17,,2013-01-13 19:12:00,
2013-01-13 14:22:00,36.0,35.0,29.91,WNW,283,3.0,7.0,97,0.07,,,2.20,,2013-01-13 19:22:00,
2013-01-13 14:33:00,35.0,34.0,29.91,WNW,291,3.0,9.0,96,0.08,,,2.21,,2013-01-13 19:33:00,
2013-01-13 14:42:00,35.0,34.0,29.91,WNW,291,3.0,9.0,96,0.08,,,2.21,,2013-01-13 19:42:00,
2013-01-13 14:53:00,34.0,33.0,29.92,WNW,292,3.0,10.0,96,0.10,,,2.23,,2013-01-13 19:53:00,
2013-01-13 15:02:00,33.0,32.0,29.92,NW,311,3.0,7.0,96,0.09,,,2.26,,2013-01-13 20:02:00,
2013-01-13 15:12:00,33.0,32.0,29.92,NW,311,3.0,7.0,96,0.09,,,2.26,,2013-01-13 20:12:00,
2013-01-13 15:22:00,32.0,31.0,29.92,NW,305,2.0,7.0,96,0.10,,,2.30,,2013-01-13 20:22:00,
2013-01-13 15:32:00,32.0,31.0,29.94,NW,321,2.0,6.0,97,0.12,,,2.33,,2013-01-13 20:32:00,
2013-01-13 15:43:00,32.0,31.0,29.94,NW,321,2.0,6.0,97,0.12,,,2.33,,2013-01-13 20:43:00,
2013-01-13 15:53:00,32.0,31.0,29.94,NW,322,1.0,5.0,97,0.12,,,2.35,,2013-01-13 20:53:00,
2013-01-13 16:03:00,32.0,31.0,29.94,NW,323,1.0,6.0,97,0.09,,,2.35,,2013-01-13 21:03:00,
2013-01-13 16:12:00,32.0,31.0,29.94,NW,323,1.0,6.0,97,0.09,,,2.35,,2013-01-13 21:12:00,
2013-01-13 16:23:00,32.0,31.0,29.95,NW,320,1.0,5.0,97,0.06,,,2.36,,2013-01-13 21:23:00,
2013-01-13 16:33:00,32.0,31.0,29.96,NW,320,1.0,5.0,96,0.03,,,2.36,,2013-01-13 21:33:00,
2013-01-13 16:42:00,32.0,31.0,29.96,NW,320,1.0,5.0,96,0.03,,,2.36,,2013-01-13 21:42:00,
2013-01-13 16:53:00,32.0,31.0,29.97,NW,320,1.0,4.0,96,0.01,,,2.36,,2013-01-13 21:53:00,
2013-01-13 17:02:00,32.0,31.0,30.00,NW,320,2.0,6.0,96,0.01,,,2.34,,2013-01-13 22:02:00,
2013-01-13 17:12:00,32.0,31.0,30.00,NW,320,2.0,6.0,96,0.01,,,2.34,,2013-01-13 22:12:00,
2013-01-13 17:22:00,32.0,31.0,30.00,NW,320,2.0,7.0,96,0.00,,,2.32,,2013-01-13 22:22:00,
2013-01-13 17:33:00,31.0,30.0,30.02,NW,320,3.0,8.0,96,0.00,,,2.31,,2013-01-13 22:33:00,
2013-01-13 17:43:00,31.0,30.0,30.02,NW,320,3.0,8.0,96,0.00,,,2.31,,2013-01-13 22:43:00,
2013-01-13 17:52:00,31.0,30.0,30.01,NW,320,1.0,7.0,96,0.00,,,2.24,,2013-01-13 22:52:00,
2013-01-13 18:02:00,31.0,30.0,30.01,NW,320,2.0,7.0,96,0.00,,,2.13,,2013-01-13 23:02:00,
2013-01-13 18:12:00,31.0,30.0,30.01,NW,320,2.0,7.0,96,0.00,,,2.13,,2013-01-13 23:12:00,
2013-01-13 18:22:00,31.0,30.0,30.03,NW,320,2.0,9.0,95,0.00,,,2.11,,2013-01-13 23:22:00,
2013-01-13 18:33:00,31.0,30.0,30.04,NW,320,1.0,6.0,96,0.00,,,1.97,,2013-01-13 23:33:00,
2013-01-13 18:42:00,31.0,30.0,30.04,NW,320,1.0,6.0,96,0.00,,,1.97,,2013-01-13 23:42:00,
2013-01-13 18:53:00,31.0,30.0,30.06,NW,320,1.0,6.0,96,0.00,,,1.85,,2013-01-13 23:53:00,
2013-01-13 19:02:00,31.0,30.0,30.07,NW,320,1.0,6.0,96,0.00,,,1.74,,2013-01-14 00:02:00,
2013-01-13 19:12:00,31.0,30.0,30.07,NW,320,1.0,6.0,96,0.00,,,1.74,,2013-01-14 00:12:00,
2013-01-13 19:22:00,30.0,29.0,30.08,NW,320,3.0,8.0,96,0.00,,,1.63,,2013-01-14 00:22:00,
2013-01-13 19:32:00,30.0,29.0,30.09,NW,320,2.0,8.0,96,0.00,,,1.33,,2013-01-14 00:32:00,
2013-01-13 19:43:00,30.0,29.0,30.09,NW,320,2.0,8.0,96,0.00,,,1.33,,2013-01-14 00:43:00,
2013-01-13 19:53:00,29.0,28.0,30.09,NW,320,3.0,8.0,96,0.00,,,1.31,,2013-01-14 00:53:00,
2013-01-13 20:03:00,28.0,27.0,30.10,NW,320,3.0,10.0,95,0.00,,,1.31,,2013-01-14 01:03:00,
2013-01-13 20:12:00,28.0,27.0,30.10,NW,320,3.0,10.0,95,0.00,,,1.31,,2013-01-14 01:12:00,
2013-01-13 20:22:00,28.0,27.0,30.11,NW,320,3.0,8.0,95,0.00,,,1.27,,2013-01-14 01:22:00,
2013-01-13 20:32:00,28.0,27.0,30.12,NW,320,3.0,8.0,95,0.00,,,1.19,,2013-01-14 01:32:00,
2013-01-13 20:42:00,28.0,27.0,30.12,NW,320,3.0,8.0,95,0.00,,,1.19,,2013-01-14 01:42:00,
2013-01-13 20:52:00,27.0,26.0,30.12,NW,320,2.0,7.0,95,0.00,,,1.09,,2013-01-14 01:52:00,
2013-01-13 21:02:00,27.0,26.0,30.13,NW,320,3.0,9.0,94,0.00,,,1.06,,2013-01-14 02:02:00,
2013-01-13 21:12:00,27.0,26.0,30.13,NW,320,1.0,5.0,94,0.00,,,1.05,,2013-01-14 02:12:00,
2013-01-13 21:22:00,27.0,26.0,30.13,NW,320,1.0,5.0,94,0.00,,,1.05,,2013-01-14 02:22:00,
2013-01-13 21:32:00,27.0,25.0,30.14,NW,320,2.0,6.0,93,0.00,,,1.05,,2013-01-14 02:32:00,
2013-01-13 21:42:00,27.0,25.0,30.14,NW,320,2.0,6.0,93,0.00,,,1.05,,2013-01-14 02:42:00,
2013-01-13 21:53:00,26.0,24.0,30.15,NW,320,3.0,7.0,92,0.00,,,1.05,,2013-01-14 02:53:00,
2013-01-13 22:02:00,26.0,24.0,30.16,NW,320,2.0,5.0,92,0.00,,,1.05,,2013-01-14 03:02:00,
2013-01-13 22:12:00,26.0,24.0,30.16,NW,320,2.0,5.0,92,0.00,,,1.05,,2013-01-14 03:12:00,
2013-01-13 22:22:00,25.0,23.0,30.17,NW,320,2.0,7.0,92,0.00,,,1.05,,2013-01-14 03:22:00,
2013-01-13 22:32:00,25.0,23.0,30.17,NW,320,0.0,5.0,93,0.00,,,1.05,,2013-01-14 03:32:00,
2013-01-13 22:42:00,25.0,23.0,30.17,NW,320,0.0,5.0,93,0.00,,,1.05,,2013-01-14 03:42:00,
2013-01-13 22:53:00,25.0,23.0,30.18,NW,320,1.0,5.0,93,0.00,,,1.05,,2013-01-14 03:53:00,
2013-01-13 23:02:00,25.0,23.0,30.19,NW,320,1.0,6.0,93,0.00,,,1.05,,2013-01-14 04:02:00,
2013-01-13 23:12:00,25.0,23.0,30.19,NW,320,1.0,6.0,93,0.00,,,1.05,,2013-01-14 04:12:00,
2013-01-13 23:22:00,25.0,23.0,30.20,NW,320,1.0,5.0,92,0.00,,,1.05,,2013-01-14 04:22:00,
2013-01-13 23:32:00,24.0,22.0,30.21,NW,320,1.0,5.0,92,0.00,,,1.05,,2013-01-14 04:32:00,
2013-01-13 23:42:00,24.0,22.0,30.21,NW,320,1.0,5.0,92,0.00,,,1.05,,2013-01-14 04:42:00,
2013-01-13 23:53:00,24.0,22.0,30.22,NW,320,1.0,7.0,92,0.00,,,1.05,,2013-01-14 04:53:00,